This is the latest recevied weather packets stored in our database for station/object OE5RBO. If no packets are shown the sender has not sent any weather packets the latest 1 day(s).
| Time | Temp. | Humidity | Pressure | Rain* | Wind** | Luminosity | Snow |
|---|---|---|---|---|---|---|---|
| 1778018947 | 15° C | 93% | 1008.7 hPa | 0 mm | 0 m/s | - | - |
| 1778018347 | 15° C | 93% | 1008.7 hPa | 0 mm | 0 m/s | - | - |
| 1778017746 | 15° C | 93% | 1008.5 hPa | 0 mm | 0 m/s | - | - |
| 1778017146 | 15° C | 90% | 1008.1 hPa | 0 mm | 0 m/s | - | - |
| 1778016546 | 15° C | 90% | 1007.9 hPa | 0 mm | 0 m/s | - | - |
| 1778015945 | 15° C | 91% | 1007.6 hPa | 0 mm | 0 m/s | - | - |
| 1778015345 | 15° C | 92% | 1007.8 hPa | 0 mm | 0 m/s | - | - |
| 1778014744 | 15° C | 94% | 1007.7 hPa | 0 mm | 0 m/s | - | - |
| 1778014144 | 15° C | 94% | 1007.5 hPa | 0 mm | 0.45 m/s, 148° | - | - |
| 1778013544 | 15° C | 95% | 1007.3 hPa | 0 mm | 0 m/s | - | - |
| 1778012343 | 15° C | 95% | 1007.1 hPa | 0 mm | 0.45 m/s, 198° | - | - |
| 1778011142 | 15° C | 95% | 1006.5 hPa | 0 mm | 0.45 m/s, 174° | - | - |
| 1778010542 | 14.44° C | 96% | 1006.2 hPa | 0 mm | 0.45 m/s, 155° | - | - |
| 1778009942 | 14.44° C | 97% | 1006.1 hPa | 0 mm | 0.89 m/s, 125° | - | - |
| 1778009341 | 15° C | 96% | 1005.9 hPa | 0 mm | 0.45 m/s, 155° | - | - |
| 1778008741 | 15° C | 95% | 1005.8 hPa | 0 mm | 0.45 m/s, 204° | - | - |
| 1778008140 | 15.56° C | 89% | 1005.7 hPa | 0 mm | 0 m/s | - | - |
| 1778007540 | 16.11° C | 88% | 1005.5 hPa | 0 mm | 0 m/s | - | - |
| 1778006940 | 16.67° C | 86% | 1005.4 hPa | 0 mm | 0 m/s | - | - |
| 1778006340 | 17.22° C | 83% | 1005.3 hPa | 0 mm | 0 m/s | - | - |
| 1778005739 | 17.22° C | 82% | 1005.2 hPa | 0 mm | 0 m/s | - | - |
| 1778005139 | 17.22° C | 83% | 1005.3 hPa | 0 mm | 1.79 m/s, 21° | - | - |
| 1778004538 | 16.67° C | 83% | 1005.3 hPa | 0 mm | 1.79 m/s, 31° | - | - |
| 1778003938 | 16.67° C | 86% | 1005.3 hPa | 0 mm | 1.79 m/s, 42° | - | - |
| 1778003337 | 16.67° C | 84% | 1005.4 hPa | 0 mm | 1.34 m/s, 25° | - | - |
* Rain since midnight (hover to see other rain measurements)
** Current wind speed in m/s (hover to see current wind gust speed)